Time;durP1;ratioP1;P1;durP2;ratioP2;P2;SDS_P1;SDS_P2;PMS_P1;PMS_P2;Temp;Humidity;BMP_temperature;BMP_pressure;BME280_temperature;BME280_humidity;BME280_pressure;Samples;Min_cycle;Max_cycle;Signal;HPM_P1;HPM_P2
2022/11/05 00:09:42;;;;;;;25.4;28.3;;;;;;;12;86.9;97880;;;;
2022/11/05 00:19:42;;;;;;;25.4;28.3;;;;;;;12;86.7;97880;;;;
2022/11/05 00:29:42;;;;;;;26.5;31.8;;;;;;;12;86.7;97890;;;;
2022/11/05 00:39:42;;;;;;;26.5;31.8;;;;;;;12;87.1;97870;;;;
2022/11/05 00:50:42;;;;;;;26.5;31.8;;;;;;;12;87.4;97870;;;;
2022/11/05 01:00:42;;;;;;;30.3;41.7;;;;;;;11.8;88.2;97870;;;;
2022/11/05 01:11:44;;;;;;;30.3;41.7;;;;;;;11.8;88.2;97900;;;;
2022/11/05 01:21:42;;;;;;;30.3;41.7;;;;;;;11.6;88.9;97920;;;;
2022/11/05 01:32:42;;;;;;;28.3;35.2;;;;;;;11.7;88.9;97920;;;;
2022/11/05 01:43:42;;;;;;;28.3;35.2;;;;;;;11.6;88.8;97930;;;;
2022/11/05 01:53:42;;;;;;;28.3;35.2;;;;;;;11.5;89.2;97930;;;;
2022/11/05 02:04:42;;;;;;;26.9;34.9;;;;;;;11.5;89.3;97950;;;;
2022/11/05 02:14:42;;;;;;;26.9;34.9;;;;;;;11.4;89.5;97960;;;;
2022/11/05 02:25:42;;;;;;;26.9;34.9;;;;;;;11.3;88.9;97970;;;;
2022/11/05 02:36:42;;;;;;;23.7;28.9;;;;;;;11.2;88.3;97980;;;;
2022/11/05 02:46:42;;;;;;;23.7;28.9;;;;;;;11;87;98000;;;;
2022/11/05 02:57:42;;;;;;;9.6;12.4;;;;;;;10.7;86.1;98030;;;;
2022/11/05 03:07:42;;;;;;;9.6;12.4;;;;;;;10.6;85.9;98060;;;;
2022/11/05 03:17:42;;;;;;;9.6;12.4;;;;;;;10.4;86.2;98070;;;;
2022/11/05 03:28:42;;;;;;;6.7;8.5;;;;;;;10.4;86;98070;;;;
2022/11/05 03:39:42;;;;;;;6.7;8.5;;;;;;;10.2;85.6;98090;;;;
2022/11/05 03:49:42;;;;;;;6.7;8.5;;;;;;;10.1;85.1;98110;;;;
2022/11/05 04:00:42;;;;;;;5;8;;;;;;;10;84.6;98110;;;;
2022/11/05 04:31:42;;;;;;;3.2;5.3;;;;;;;9.7;84.8;98130;;;;
2022/11/05 04:42:42;;;;;;;3.2;5.3;;;;;;;9.7;84.6;98140;;;;
2022/11/05 04:52:42;;;;;;;3.2;5.3;;;;;;;9.8;84.5;98150;;;;
2022/11/05 05:03:42;;;;;;;3.8;5.8;;;;;;;9.8;84.2;98160;;;;
2022/11/05 05:14:42;;;;;;;3.8;5.8;;;;;;;9.7;83.7;98170;;;;
2022/11/05 05:25:42;;;;;;;3.3;5.3;;;;;;;9.7;83.6;98180;;;;
2022/11/05 05:36:42;;;;;;;3.3;5.3;;;;;;;9.8;83.8;98200;;;;
2022/11/05 05:47:42;;;;;;;3.3;5.3;;;;;;;9.7;84;98200;;;;
2022/11/05 05:57:42;;;;;;;3.8;8.3;;;;;;;9.7;84.3;98230;;;;
2022/11/05 06:07:42;;;;;;;3.8;8.3;;;;;;;9.7;84.9;98240;;;;
2022/11/05 06:18:42;;;;;;;3.8;8.3;;;;;;;9.6;86.1;98260;;;;
2022/11/05 06:28:42;;;;;;;3.7;6.5;;;;;;;9.7;86.6;98280;;;;
2022/11/05 06:39:42;;;;;;;3.7;6.5;;;;;;;9.7;87.1;98300;;;;
2022/11/05 06:49:42;;;;;;;3.7;6.5;;;;;;;9.7;87.5;98310;;;;
2022/11/05 06:59:42;;;;;;;4.2;7;;;;;;;9.7;87.6;98330;;;;
2022/11/05 07:10:42;;;;;;;4.2;7;;;;;;;9.7;87.8;98350;;;;
2022/11/05 07:21:42;;;;;;;4.2;7;;;;;;;9.5;88.3;98360;;;;
2022/11/05 07:32:42;;;;;;;3.5;6.6;;;;;;;9.6;88.2;98370;;;;
2022/11/05 07:43:42;;;;;;;3.5;6.6;;;;;;;9.5;88.3;98380;;;;
2022/11/05 07:54:42;;;;;;;3.5;6.6;;;;;;;9.5;88.6;98380;;;;
2022/11/05 08:04:42;;;;;;;4.2;7.1;;;;;;;9.4;88.7;98380;;;;
2022/11/05 08:15:42;;;;;;;4.2;7.1;;;;;;;9.5;88.9;98390;;;;
2022/11/05 08:26:42;;;;;;;8.7;12.9;;;;;;;9.4;89.2;98400;;;;
2022/11/05 08:37:42;;;;;;;8.7;12.9;;;;;;;9.5;89.1;98420;;;;
2022/11/05 08:48:42;;;;;;;8.7;12.9;;;;;;;9.5;89;98430;;;;
2022/11/05 08:58:42;;;;;;;7.3;11.1;;;;;;;9.5;89.1;98430;;;;
2022/11/05 09:09:42;;;;;;;7.3;11.1;;;;;;;9.5;89.3;98450;;;;
2022/11/05 09:19:42;;;;;;;7.3;11.1;;;;;;;9.5;89;98450;;;;
2022/11/05 09:30:42;;;;;;;7.3;11.1;;;;;;;9.7;88.8;98460;;;;
2022/11/05 09:40:42;;;;;;;7.3;11.1;;;;;;;9.7;88.5;98470;;;;
2022/11/05 09:51:42;;;;;;;7.3;11.1;;;;;;;9.8;88.1;98470;;;;
2022/11/05 10:02:42;;;;;;;5.6;8.1;;;;;;;9.9;88.1;98480;;;;
2022/11/05 10:13:43;;;;;;;5.6;8.1;;;;;;;10.1;87.8;98490;;;;
2022/11/05 10:24:43;;;;;;;5.6;8.1;;;;;;;10.3;87.3;98490;;;;
2022/11/05 10:35:43;;;;;;;14.2;18.2;;;;;;;10.3;87.3;98490;;;;
2022/11/05 10:46:42;;;;;;;14.2;18.2;;;;;;;10.2;87;98510;;;;
2022/11/05 10:56:43;;;;;;;6.7;8.9;;;;;;;10.2;87.1;98510;;;;
2022/11/05 11:06:43;;;;;;;6.7;8.9;;;;;;;10.4;87.4;98520;;;;
2022/11/05 11:17:42;;;;;;;6.7;8.9;;;;;;;10.3;87;98520;;;;
2022/11/05 11:27:43;;;;;;;8;10.8;;;;;;;10.3;87.4;98530;;;;
2022/11/05 11:38:43;;;;;;;8;10.8;;;;;;;10.4;87.6;98530;;;;
2022/11/05 11:49:43;;;;;;;8;10.8;;;;;;;10.3;87.5;98540;;;;
2022/11/05 12:00:43;;;;;;;10.7;16.5;;;;;;;10.3;87.7;98550;;;;
2022/11/05 12:10:43;;;;;;;10.7;16.5;;;;;;;10.3;87.6;98560;;;;
2022/11/05 12:21:43;;;;;;;10.7;16.5;;;;;;;10.2;88;98560;;;;
2022/11/05 12:31:42;;;;;;;11.3;14.5;;;;;;;10.2;88.3;98570;;;;
2022/11/05 12:41:43;;;;;;;11.3;14.5;;;;;;;10.2;88.5;98570;;;;
2022/11/05 12:52:42;;;;;;;11.3;14.5;;;;;;;10.1;88.6;98570;;;;
2022/11/05 13:02:43;;;;;;;13.7;16.7;;;;;;;10.2;88.5;98580;;;;
2022/11/05 13:13:43;;;;;;;13.7;16.7;;;;;;;10.2;88.6;98590;;;;
2022/11/05 13:23:43;;;;;;;13.7;16.7;;;;;;;10;89.1;98600;;;;
2022/11/05 13:34:43;;;;;;;14.6;20.7;;;;;;;10;89.5;98610;;;;
2022/11/05 13:45:43;;;;;;;14.6;20.7;;;;;;;10.1;89.6;98620;;;;
2022/11/05 13:55:42;;;;;;;18.6;22.1;;;;;;;10.1;89.6;98620;;;;
2022/11/05 14:05:43;;;;;;;18.6;22.1;;;;;;;10.1;89.5;98640;;;;
2022/11/05 14:16:44;;;;;;;18.6;22.1;;;;;;;10.2;89.6;98650;;;;
2022/11/05 14:27:43;;;;;;;16.2;20.1;;;;;;;10.1;89.8;98680;;;;
2022/11/05 14:38:43;;;;;;;16.2;20.1;;;;;;;10.1;89.9;98680;;;;
2022/11/05 14:49:43;;;;;;;16.2;20.1;;;;;;;10;90.2;98690;;;;
2022/11/05 15:00:43;;;;;;;17.4;22.8;;;;;;;10.1;90.1;98700;;;;
2022/11/05 15:11:43;;;;;;;17.4;22.8;;;;;;;10;90.2;98710;;;;
2022/11/05 15:22:43;;;;;;;17.4;22.8;;;;;;;10.1;90.2;98720;;;;
2022/11/05 15:33:43;;;;;;;16.1;19.7;;;;;;;10.1;90.3;98730;;;;
2022/11/05 15:43:43;;;;;;;16.1;19.7;;;;;;;10.1;90.5;98750;;;;
2022/11/05 15:53:43;;;;;;;16.1;19.7;;;;;;;10.1;90.5;98760;;;;
2022/11/05 16:04:43;;;;;;;21.2;26;;;;;;;10.1;90.4;98770;;;;
2022/11/05 16:14:43;;;;;;;21.2;26;;;;;;;10.1;90.2;98770;;;;
2022/11/05 16:24:43;;;;;;;28;33.2;;;;;;;10;90.5;98770;;;;
2022/11/05 16:34:43;;;;;;;28;33.2;;;;;;;10;90.8;98780;;;;
2022/11/05 16:45:43;;;;;;;28;33.2;;;;;;;10;90.6;98800;;;;
2022/11/05 16:56:44;;;;;;;20.7;26.7;;;;;;;9.9;90.1;98820;;;;
2022/11/05 17:06:45;;;;;;;20.7;26.7;;;;;;;9.9;89.5;98830;;;;
2022/11/05 17:17:43;;;;;;;20.7;26.7;;;;;;;9.8;89.1;98850;;;;
2022/11/05 17:27:43;;;;;;;12.3;15.8;;;;;;;9.7;89.2;98860;;;;
2022/11/05 17:38:43;;;;;;;12.3;15.8;;;;;;;9.7;89.1;98870;;;;
2022/11/05 17:48:43;;;;;;;12.3;15.8;;;;;;;9.7;89.2;98870;;;;
2022/11/05 17:59:43;;;;;;;11.8;16.1;;;;;;;9.7;88.6;98870;;;;
2022/11/05 18:10:43;;;;;;;11.8;16.1;;;;;;;9.7;88.8;98880;;;;
2022/11/05 18:20:43;;;;;;;11.8;16.1;;;;;;;9.7;88.8;98900;;;;
2022/11/05 18:30:43;;;;;;;13.9;17.5;;;;;;;9.7;88.6;98900;;;;
2022/11/05 18:41:43;;;;;;;13.9;17.5;;;;;;;9.7;88.3;98910;;;;
2022/11/05 18:51:43;;;;;;;13.9;17.5;;;;;;;9.8;88.2;98920;;;;
2022/11/05 19:02:43;;;;;;;22.4;25.8;;;;;;;9.8;88.3;98930;;;;
2022/11/05 19:12:43;;;;;;;22.4;25.8;;;;;;;9.8;88.6;98940;;;;
2022/11/05 19:22:43;;;;;;;22.4;25.8;;;;;;;9.8;88.8;98950;;;;
2022/11/05 19:33:43;;;;;;;26.9;36.3;;;;;;;9.7;88.9;98960;;;;
2022/11/05 19:43:43;;;;;;;26.9;36.3;;;;;;;9.8;88.8;98970;;;;
2022/11/05 19:54:44;;;;;;;24.7;32.5;;;;;;;9.7;88.9;98980;;;;
2022/11/05 20:04:43;;;;;;;24.7;32.5;;;;;;;9.7;89;98990;;;;
2022/11/05 20:15:43;;;;;;;24.7;32.5;;;;;;;9.7;88.7;99010;;;;
2022/11/05 20:25:43;;;;;;;21.5;26.2;;;;;;;9.7;88.6;99030;;;;
2022/11/05 20:35:43;;;;;;;21.5;26.2;;;;;;;9.6;88.7;99040;;;;
2022/11/05 20:46:43;;;;;;;21.5;26.2;;;;;;;9.7;88.6;99050;;;;
2022/11/05 20:56:43;;;;;;;23.5;33.9;;;;;;;9.7;88.4;99060;;;;
2022/11/05 21:07:43;;;;;;;23.5;33.9;;;;;;;9.7;88.4;99050;;;;
2022/11/05 21:17:44;;;;;;;23.5;33.9;;;;;;;9.7;88.6;99060;;;;
2022/11/05 21:27:43;;;;;;;22.4;29.3;;;;;;;9.7;88.6;99060;;;;
2022/11/05 21:37:43;;;;;;;22.4;29.3;;;;;;;9.8;88.5;99060;;;;
2022/11/05 21:48:43;;;;;;;22.4;29.3;;;;;;;9.8;88.4;99070;;;;
2022/11/05 21:59:47;;;;;;;21.7;29.8;;;;;;;9.8;88.4;99070;;;;
2022/11/05 22:08:43;;;;;;;21.7;29.8;;;;;;;9.7;88.3;99080;;;;
2022/11/05 22:19:43;;;;;;;21.7;29.8;;;;;;;9.7;88.3;99080;;;;
2022/11/05 22:30:43;;;;;;;20;25.2;;;;;;;9.6;88.2;99090;;;;
2022/11/05 22:41:43;;;;;;;20;25.2;;;;;;;9.7;88.2;99090;;;;
2022/11/05 22:52:43;;;;;;;20;25.2;;;;;;;9.7;88.2;99090;;;;
2022/11/05 23:02:43;;;;;;;19.4;27.2;;;;;;;9.6;88.3;99090;;;;
2022/11/05 23:12:43;;;;;;;19.4;27.2;;;;;;;9.6;88.3;99090;;;;
2022/11/05 23:24:14;;;;;;;19.4;27.2;;;;;;;9.6;88.5;99090;;;;
2022/11/05 23:34:43;;;;;;;18.4;22.1;;;;;;;9.6;88;99100;;;;
2022/11/05 23:54:43;;;;;;;18.5;25.8;;;;;;;9.4;88.8;99090;;;;
